Terminal Aerodrome Forecast
Issued by NWS Central Illinois

Home | Current Version | Previous Version | Text Only | Print | Product List | Glossary On
Versions: 1 2 3 4 5 6 7 8 9 10 11 12 13 14
000
FTUS43 KILX 301755
TAFPIA
TAF
KPIA 301755Z 3018/3118 34005KT 3SM -RA BR SCT008 BKN015
     FM302100 35010KT 6SM -RA BR OVC008
     FM302300 02014G24KT P6SM VCSH OVC008
     FM310500 02012KT P6SM OVC015=

USA.gov is the U.S. government's official web portal to all federal, state and local government web resources and services.